Akademik Fedorov — UCKZ — position and weather

sailwx.info

Track history (hours):
 
Tides and Currents Weather Stations Pressure Air Temp Water Temp Dewpoint Dewpoint Depression Visibility Wind Speed Wind Dir Waves Ship Positions

Oceanographic research ship Akademik Fedorov (Russia)

Detailed information on ship capabilities available from ARCUS's ALIAS (Arctic Logistics Information and Support) project.

Last reported at 2020-Jan-25 01:00 UTC. Time now 2020-Jan-25 05:35 UTC.
Position N 49°53' W 003°15'.

Length 141 m; beam 17 m.

Type: Other ship. MMSI: 273412710.

Date/timePositionNaut miles runAvg speedWind from/ knotsBaromVisibWave heightAir tempDewpointWater temp
2020-Jan-25 01:00N 49°53' W 003°15'917.5
2020-Jan-25 00:30N 49°57' W 003°03'1427.0
2020-Jan-25 00:00N 50°00' W 002°42'11314.1 130 / 161021.4 5.4 7.8 4.611.1
2020-Jan-24 16:00N 50°33' E 000°07'2017.1
2020-Jan-24 14:50N 50°38' E 000°37'1416.3
2020-Jan-24 14:00N 50°46' E 000°54'2814.3
2020-Jan-24 12:00N 51°05' E 001°29'1313.4
2020-Jan-24 11:00N 51°13' E 001°45'714.6
2020-Jan-24 10:31N 51°19' E 001°52'815.7
2020-Jan-24 10:00N 51°26' E 001°59'4416.7
2020-Jan-24 07:24N 52°03' E 002°37'616.3
2020-Jan-24 07:00N 52°09' E 002°38'5114.6
2020-Jan-24 03:30N 52°54' E 003°16'1413.5
2020-Jan-24 02:30N 53°07' E 003°23'2814.0
2020-Jan-24 00:29N 53°35' E 003°36'15112.6
2020-Jan-23 12:30N 53°53' E 007°50'2514.7
2020-Jan-23 10:48N 53°39' E 008°25'8 9.7
2020-Jan-23 10:00N 53°33' E 008°34'1 0.1
2020-Jan-23 05:52N 53°34' E 008°33'0 0.0
2020-Jan-23 05:28N 53°34' E 008°33'0 0.0
2020-Jan-22 18:58N 53°34' E 008°33'0 0.0
2020-Jan-22 14:55N 53°34' E 008°33'0 0.0
2020-Jan-22 12:55N 53°34' E 008°33'0 0.0
2020-Jan-22 10:58N 53°34' E 008°33'0 0.0
2020-Jan-22 08:52N 53°34' E 008°33'0 0.0
2020-Jan-22 08:25N 53°34' E 008°33'0 0.0
2020-Jan-22 03:55N 53°34' E 008°33'0 0.0
2020-Jan-22 03:28N 53°34' E 008°33'0 0.0
2020-Jan-21 23:55N 53°34' E 008°33'0 0.0
2020-Jan-21 20:25N 53°34' E 008°33'0 0.0
2020-Jan-21 12:58N 53°34' E 008°33'0 0.0
2020-Jan-21 11:28N 53°34' E 008°33'0 0.0
2020-Jan-21 10:28N 53°34' E 008°33'0 0.0
2020-Jan-21 07:28N 53°34' E 008°33'0 0.0
2020-Jan-21 06:58N 53°34' E 008°33'0 0.0
2020-Jan-21 03:55N 53°34' E 008°33'0 0.0
2020-Jan-21 03:25N 53°34' E 008°33'0 0.0
2020-Jan-21 02:55N 53°34' E 008°33'0 0.0
2020-Jan-21 01:28N 53°34' E 008°33'0 0.0
2020-Jan-21 00:55N 53°34' E 008°33'0 0.0
2020-Jan-20 20:55N 53°34' E 008°33'0 0.0
2020-Jan-20 18:28N 53°34' E 008°33'0 0.0
2020-Jan-20 16:58N 53°34' E 008°33'0 0.0
2020-Jan-20 14:55N 53°34' E 008°33'0 0.0
2020-Jan-20 13:25N 53°34' E 008°33'0 0.0
2020-Jan-20 11:58N 53°34' E 008°33'0 0.0
2020-Jan-20 10:58N 53°34' E 008°33'0 0.0
2020-Jan-20 09:28N 53°34' E 008°33'0 0.0
2020-Jan-20 08:52N 53°34' E 008°33'0 0.0
2020-Jan-20 06:55N 53°34' E 008°33'0 0.0
2020-Jan-20 05:55N 53°34' E 008°33'0 0.0
2020-Jan-20 05:25N 53°34' E 008°33'0 0.0
2020-Jan-20 04:55N 53°34' E 008°33'0 0.0
2020-Jan-20 03:16N 53°34' E 008°33'0 0.0
2020-Jan-20 02:22N 53°34' E 008°33'0 0.0
2020-Jan-20 01:19N 53°34' E 008°33'0 0.0
2020-Jan-20 00:46N 53°34' E 008°33'0 0.0
2020-Jan-19 23:28N 53°34' E 008°33'0 0.0
2020-Jan-19 20:58N 53°34' E 008°33'0 0.0
2020-Jan-19 18:55N 53°34' E 008°33'0 0.0
2020-Jan-19 18:28N 53°34' E 008°33'0 0.0
2020-Jan-19 16:28N 53°34' E 008°33'0 0.0
2020-Jan-19 12:58N 53°34' E 008°33'0 0.0
2020-Jan-19 10:52N 53°34' E 008°33'0 0.6
2020-Jan-19 10:30N 53°34' E 008°33'0 0.4
2020-Jan-19 10:00N 53°34' E 008°33'6 4.0
2020-Jan-19 08:30N 53°38' E 008°26'2612.9
2020-Jan-19 06:31N 53°52' E 007°49'200 7.5
2020-Jan-18 03:55N 57°12' E 008°08'18 9.6
2020-Jan-18 02:00N 57°26' E 008°29'9 9.2
2020-Jan-18 00:58N 57°34' E 008°40'9 9.8
2020-Jan-18 00:01N 57°39' E 008°55'39 9.8
2020-Jan-17 20:00N 57°55' E 010°02'14 9.6
2020-Jan-17 18:30N 57°58' E 010°29'1312.8
2020-Jan-17 17:30N 57°53' E 010°51'1616.1
2020-Jan-17 16:30N 57°40' E 011°09'2416.2
2020-Jan-17 15:00N 57°19' E 011°31'12614.9
2020-Jan-17 06:33N 55°14' E 011°06'2415.2
2020-Jan-17 05:00N 54°52' E 010°53'816.1
2020-Jan-17 04:30N 54°44' E 010°53'815.1
2020-Jan-17 04:00N 54°39' E 011°03'2315.5
2020-Jan-17 02:30N 54°29' E 011°39'2411.8
2020-Jan-17 00:30N 54°38' E 012°17'9914.1
2020-Jan-16 17:26N 55°30' E 014°44'613.9
2020-Jan-16 17:00N 55°32' E 014°54'4013.4
2020-Jan-16 14:00N 55°45' E 016°02'1312.9
2020-Jan-16 13:00N 55°48' E 016°24'612.9
2020-Jan-16 12:30N 55°50' E 016°35'612.7
2020-Jan-16 12:00N 55°51' E 016°46'29013.2
2020-Jan-15 14:01N 59°32' E 022°38'1711.0
2020-Jan-15 12:30N 59°37' E 023°09'1211.2
2020-Jan-15 11:28N 59°40' E 023°31'2412.2
2020-Jan-15 09:27N 59°47' E 024°18'1313.3
2020-Jan-15 08:31N 59°50' E 024°42'5114.7
2020-Jan-15 05:00N 60°00' E 026°23'2214.7
2020-Jan-15 03:30N 60°01' E 027°07'1514.6
2020-Jan-15 02:30N 60°08' E 027°32'1313.3
2020-Jan-15 01:30N 60°11' E 027°58'  
Track history (hours):
 
Tides and Currents Weather Stations Pressure Air Temp Water Temp Dewpoint Dewpoint Depression Visibility Wind Speed Wind Dir Waves Ship Positions

Oceanographic research ship Akademik Fedorov (Russia)

Detailed information on ship capabilities available from ARCUS's ALIAS (Arctic Logistics Information and Support) project.

Last reported at 2020-Jan-25 01:00 UTC. Time now 2020-Jan-25 05:35 UTC.
Position N 49°53' W 003°15'.

Length 141 m; beam 17 m.

Type: Other ship. MMSI: 273412710.

Date/timePositionNaut miles runAvg speedWind from/ knotsBaromVisibWave heightAir tempDewpointWater temp
2020-Jan-25 01:00N 49°53' W 003°15'917.5
2020-Jan-25 00:30N 49°57' W 003°03'1427.0
2020-Jan-25 00:00N 50°00' W 002°42'11314.1 130 / 161021.4 5.4 7.8 4.611.1
2020-Jan-24 16:00N 50°33' E 000°07'2017.1
2020-Jan-24 14:50N 50°38' E 000°37'1416.3
2020-Jan-24 14:00N 50°46' E 000°54'2814.3
2020-Jan-24 12:00N 51°05' E 001°29'1313.4
2020-Jan-24 11:00N 51°13' E 001°45'714.6
2020-Jan-24 10:31N 51°19' E 001°52'815.7
2020-Jan-24 10:00N 51°26' E 001°59'4416.7
2020-Jan-24 07:24N 52°03' E 002°37'616.3
2020-Jan-24 07:00N 52°09' E 002°38'5114.6
2020-Jan-24 03:30N 52°54' E 003°16'1413.5
2020-Jan-24 02:30N 53°07' E 003°23'2814.0
2020-Jan-24 00:29N 53°35' E 003°36'15112.6
2020-Jan-23 12:30N 53°53' E 007°50'2514.7
2020-Jan-23 10:48N 53°39' E 008°25'8 9.7
2020-Jan-23 10:00N 53°33' E 008°34'1 0.1
2020-Jan-23 05:52N 53°34' E 008°33'0 0.0
2020-Jan-23 05:28N 53°34' E 008°33'0 0.0
2020-Jan-22 18:58N 53°34' E 008°33'0 0.0
2020-Jan-22 14:55N 53°34' E 008°33'0 0.0
2020-Jan-22 12:55N 53°34' E 008°33'0 0.0
2020-Jan-22 10:58N 53°34' E 008°33'0 0.0
2020-Jan-22 08:52N 53°34' E 008°33'0 0.0
2020-Jan-22 08:25N 53°34' E 008°33'0 0.0
2020-Jan-22 03:55N 53°34' E 008°33'0 0.0
2020-Jan-22 03:28N 53°34' E 008°33'0 0.0
2020-Jan-21 23:55N 53°34' E 008°33'0 0.0
2020-Jan-21 20:25N 53°34' E 008°33'0 0.0
2020-Jan-21 12:58N 53°34' E 008°33'0 0.0
2020-Jan-21 11:28N 53°34' E 008°33'0 0.0
2020-Jan-21 10:28N 53°34' E 008°33'0 0.0
2020-Jan-21 07:28N 53°34' E 008°33'0 0.0
2020-Jan-21 06:58N 53°34' E 008°33'0 0.0
2020-Jan-21 03:55N 53°34' E 008°33'0 0.0
2020-Jan-21 03:25N 53°34' E 008°33'0 0.0
2020-Jan-21 02:55N 53°34' E 008°33'0 0.0
2020-Jan-21 01:28N 53°34' E 008°33'0 0.0
2020-Jan-21 00:55N 53°34' E 008°33'0 0.0
2020-Jan-20 20:55N 53°34' E 008°33'0 0.0
2020-Jan-20 18:28N 53°34' E 008°33'0 0.0
2020-Jan-20 16:58N 53°34' E 008°33'0 0.0
2020-Jan-20 14:55N 53°34' E 008°33'0 0.0
2020-Jan-20 13:25N 53°34' E 008°33'0 0.0
2020-Jan-20 11:58N 53°34' E 008°33'0 0.0
2020-Jan-20 10:58N 53°34' E 008°33'0 0.0
2020-Jan-20 09:28N 53°34' E 008°33'0 0.0
2020-Jan-20 08:52N 53°34' E 008°33'0 0.0
2020-Jan-20 06:55N 53°34' E 008°33'0 0.0
2020-Jan-20 05:55N 53°34' E 008°33'0 0.0
2020-Jan-20 05:25N 53°34' E 008°33'0 0.0
2020-Jan-20 04:55N 53°34' E 008°33'0 0.0
2020-Jan-20 03:16N 53°34' E 008°33'0 0.0
2020-Jan-20 02:22N 53°34' E 008°33'0 0.0
2020-Jan-20 01:19N 53°34' E 008°33'0 0.0
2020-Jan-20 00:46N 53°34' E 008°33'0 0.0
2020-Jan-19 23:28N 53°34' E 008°33'0 0.0
2020-Jan-19 20:58N 53°34' E 008°33'0 0.0
2020-Jan-19 18:55N 53°34' E 008°33'0 0.0
2020-Jan-19 18:28N 53°34' E 008°33'0 0.0
2020-Jan-19 16:28N 53°34' E 008°33'0 0.0
2020-Jan-19 12:58N 53°34' E 008°33'0 0.0
2020-Jan-19 10:52N 53°34' E 008°33'0 0.6
2020-Jan-19 10:30N 53°34' E 008°33'0 0.4
2020-Jan-19 10:00N 53°34' E 008°33'6 4.0
2020-Jan-19 08:30N 53°38' E 008°26'2612.9
2020-Jan-19 06:31N 53°52' E 007°49'200 7.5
2020-Jan-18 03:55N 57°12' E 008°08'18 9.6
2020-Jan-18 02:00N 57°26' E 008°29'9 9.2
2020-Jan-18 00:58N 57°34' E 008°40'9 9.8
2020-Jan-18 00:01N 57°39' E 008°55'39 9.8
2020-Jan-17 20:00N 57°55' E 010°02'14 9.6
2020-Jan-17 18:30N 57°58' E 010°29'1312.8
2020-Jan-17 17:30N 57°53' E 010°51'1616.1
2020-Jan-17 16:30N 57°40' E 011°09'2416.2
2020-Jan-17 15:00N 57°19' E 011°31'12614.9
2020-Jan-17 06:33N 55°14' E 011°06'2415.2
2020-Jan-17 05:00N 54°52' E 010°53'816.1
2020-Jan-17 04:30N 54°44' E 010°53'815.1
2020-Jan-17 04:00N 54°39' E 011°03'2315.5
2020-Jan-17 02:30N 54°29' E 011°39'2411.8
2020-Jan-17 00:30N 54°38' E 012°17'9914.1
2020-Jan-16 17:26N 55°30' E 014°44'613.9
2020-Jan-16 17:00N 55°32' E 014°54'4013.4
2020-Jan-16 14:00N 55°45' E 016°02'1312.9
2020-Jan-16 13:00N 55°48' E 016°24'612.9
2020-Jan-16 12:30N 55°50' E 016°35'612.7
2020-Jan-16 12:00N 55°51' E 016°46'29013.2
2020-Jan-15 14:01N 59°32' E 022°38'1711.0
2020-Jan-15 12:30N 59°37' E 023°09'1211.2
2020-Jan-15 11:28N 59°40' E 023°31'2412.2
2020-Jan-15 09:27N 59°47' E 024°18'1313.3
2020-Jan-15 08:31N 59°50' E 024°42'5114.7
2020-Jan-15 05:00N 60°00' E 026°23'2214.7
2020-Jan-15 03:30N 60°01' E 027°07'1514.6
2020-Jan-15 02:30N 60°08' E 027°32'1313.3
2020-Jan-15 01:30N 60°11' E 027°58'  

Dump ship's entire track history